Time;durP1;ratioP1;P1;durP2;ratioP2;P2;SDS_P1;SDS_P2;PMS_P1;PMS_P2;Temp;Humidity;BMP_temperature;BMP_pressure;BME280_temperature;BME280_humidity;BME280_pressure;Samples;Min_cycle;Max_cycle;Signal;HPM_P1;HPM_P2
2021/01/24 00:01:45;;;;;;;62.35;20.38;;;;;;;0.53;100.00;99486.28;5224784;28;20385;-78
2021/01/24 00:04:16;;;;;;;52.17;19.45;;;;;;;0.53;100.00;99494.22;5226470;28;20037;-78
2021/01/24 00:06:46;;;;;;;48.65;19.40;;;;;;;0.49;100.00;99491.00;5230626;28;20086;-79
2021/01/24 00:09:17;;;;;;;45.80;16.40;;;;;;;0.52;100.00;99492.56;5230129;28;20029;-78
2021/01/24 00:11:48;;;;;;;35.13;14.63;;;;;;;0.52;100.00;99487.28;5208675;28;20097;-78
2021/01/24 00:14:18;;;;;;;37.13;14.45;;;;;;;0.46;100.00;99485.19;5219522;28;20048;-78
2021/01/24 00:16:49;;;;;;;38.92;14.27;;;;;;;0.48;100.00;99497.25;5230037;28;20082;-78
2021/01/24 00:19:19;;;;;;;35.33;15.63;;;;;;;0.48;100.00;99499.91;5230034;28;20082;-78
2021/01/24 00:21:50;;;;;;;34.15;14.52;;;;;;;0.48;100.00;99497.25;5229406;28;20567;-78
2021/01/24 00:24:20;;;;;;;38.60;13.40;;;;;;;0.56;100.00;99501.03;5237797;28;20090;-78
2021/01/24 00:26:50;;;;;;;32.78;12.88;;;;;;;0.55;100.00;99499.34;5230769;28;20045;-78
2021/01/24 00:29:21;;;;;;;30.33;13.55;;;;;;;0.49;100.00;99509.47;5229610;28;20075;-78
2021/01/24 00:31:51;;;;;;;34.50;14.15;;;;;;;0.46;100.00;99507.13;5229370;28;20029;-78
2021/01/24 00:34:22;;;;;;;39.75;15.90;;;;;;;0.56;100.00;99508.97;5229123;28;20112;-78
2021/01/24 00:36:52;;;;;;;35.03;14.90;;;;;;;0.60;100.00;99507.69;5229684;28;20067;-78
2021/01/24 00:39:23;;;;;;;38.42;15.50;;;;;;;0.54;100.00;99510.88;5228621;28;20048;-77
2021/01/24 00:41:53;;;;;;;42.63;15.88;;;;;;;0.57;100.00;99511.44;5233323;28;20025;-78
2021/01/24 00:44:24;;;;;;;36.35;16.25;;;;;;;0.52;100.00;99511.03;5232531;28;20085;-78
2021/01/24 00:46:54;;;;;;;40.13;16.40;;;;;;;0.51;100.00;99512.84;5232573;28;20021;-78
2021/01/24 00:49:25;;;;;;;42.22;16.08;;;;;;;0.52;100.00;99518.94;5232777;28;20043;-78
2021/01/24 00:51:55;;;;;;;42.53;16.65;;;;;;;0.57;100.00;99518.53;5231837;28;20036;-78
2021/01/24 00:54:26;;;;;;;47.30;17.80;;;;;;;0.61;100.00;99523.41;5232644;28;20029;-78
2021/01/24 00:56:56;;;;;;;47.08;15.90;;;;;;;0.61;100.00;99527.88;5231778;28;20024;-78
2021/01/24 00:59:27;;;;;;;54.13;17.65;;;;;;;0.60;100.00;99527.00;5232945;28;20024;-78
2021/01/24 01:01:57;;;;;;;43.78;17.73;;;;;;;0.57;100.00;99532.56;5231684;28;20503;-78
2021/01/24 01:04:28;;;;;;;49.33;17.95;;;;;;;0.60;100.00;99536.72;5231818;28;20468;-78
2021/01/24 01:06:59;;;;;;;44.05;17.27;;;;;;;0.58;100.00;99539.50;5231036;28;20108;-78
2021/01/24 01:09:29;;;;;;;45.20;16.63;;;;;;;0.57;100.00;99532.56;5231404;28;20029;-78
2021/01/24 01:12:00;;;;;;;43.47;17.05;;;;;;;0.65;100.00;99537.16;5231101;28;20075;-78
2021/01/24 01:14:30;;;;;;;48.40;15.68;;;;;;;0.71;100.00;99540.13;5231660;28;20028;-78
2021/01/24 01:17:01;;;;;;;47.63;17.23;;;;;;;0.68;100.00;99550.94;5231511;28;20044;-78
2021/01/24 01:19:32;;;;;;;43.78;15.60;;;;;;;0.75;100.00;99557.34;5231815;28;20084;-78
2021/01/24 01:22:02;;;;;;;53.53;17.48;;;;;;;0.70;100.00;99556.06;5229457;28;20542;-77
2021/01/24 01:24:32;;;;;;;51.55;16.83;;;;;;;0.77;100.00;99550.13;5239670;28;20039;-78
2021/01/24 01:27:03;;;;;;;41.08;16.30;;;;;;;0.78;100.00;99558.88;5231447;28;20029;-78
2021/01/24 01:29:34;;;;;;;39.33;16.40;;;;;;;0.70;100.00;99558.69;5231650;28;20117;-77
2021/01/24 01:32:04;;;;;;;38.83;15.52;;;;;;;0.69;100.00;99563.16;5231837;28;20036;-78
2021/01/24 01:34:35;;;;;;;37.90;15.23;;;;;;;0.68;100.00;99572.06;5213985;28;20049;-78
2021/01/24 01:37:05;;;;;;;39.63;14.88;;;;;;;0.63;100.00;99565.50;5227242;28;20025;-78
2021/01/24 01:39:36;;;;;;;39.25;14.93;;;;;;;0.62;100.00;99572.59;5231223;28;20088;-77
2021/01/24 01:42:12;;;;;;;37.58;14.63;;;;;;;0.65;100.00;99577.63;5230984;28;20029;-78
2021/01/24 01:44:43;;;;;;;36.35;14.88;;;;;;;0.67;100.00;99583.59;5229923;28;20021;-78
2021/01/24 01:47:20;;;;;;;34.03;14.43;;;;;;;0.60;100.00;99590.34;5229823;28;20032;-77
2021/01/24 01:49:55;;;;;;;30.58;13.05;;;;;;;0.59;100.00;99583.41;5230750;28;20492;-78
2021/01/24 01:52:26;;;;;;;;;;;;;;;0.57;100.00;99593.28;5229195;28;20391;-78
2021/01/24 01:54:57;;;;;;;24.35;10.82;;;;;;;0.57;100.00;99598.56;5229059;28;19909;-78
2021/01/24 01:57:28;;;;;;;24.13;11.30;;;;;;;0.43;100.00;99602.38;5230115;28;20476;-78
2021/01/24 01:59:58;;;;;;;24.83;11.55;;;;;;;0.52;100.00;99601.59;5212661;28;20025;-78
2021/01/24 02:02:44;;;;;;;23.50;10.98;;;;;;;0.44;100.00;99605.84;5229547;28;20088;-78
2021/01/24 02:05:26;;;;;;;27.52;9.68;;;;;;;0.49;100.00;99608.91;5229777;28;20045;-78
2021/01/24 02:08:07;;;;;;;25.17;10.82;;;;;;;0.44;100.00;99611.94;5211771;28;20060;-78
2021/01/24 02:10:46;;;;;;;27.83;12.48;;;;;;;0.37;100.00;99605.53;5228161;28;20056;-78
2021/01/24 02:13:47;;;;;;;25.67;11.98;;;;;;;0.39;100.00;99608.03;5222763;28;20056;-78
2021/01/24 02:16:19;;;;;;;27.10;12.05;;;;;;;0.35;100.00;99609.25;5233761;28;20060;-78
2021/01/24 02:18:58;;;;;;;28.38;12.93;;;;;;;0.37;100.00;99608.19;5233269;28;20044;-78
2021/01/24 02:21:44;;;;;;;29.33;13.30;;;;;;;0.42;100.00;99626.25;5227766;28;20547;-78
2021/01/24 02:24:16;;;;;;;30.52;13.30;;;;;;;0.42;100.00;99616.53;5227466;28;20079;-78
2021/01/24 02:26:52;;;;;;;31.38;13.60;;;;;;;0.44;100.00;99635.69;5230411;28;20021;-78
2021/01/24 02:29:40;;;;;;;33.90;13.65;;;;;;;0.41;100.00;99640.44;5230204;28;20036;-78
2021/01/24 02:32:15;;;;;;;27.40;12.52;;;;;;;0.38;100.00;99636.22;5230408;28;20029;-78
2021/01/24 02:34:49;;;;;;;27.95;12.05;;;;;;;0.35;100.00;99635.66;5229623;28;20059;-78
2021/01/24 02:37:19;;;;;;;35.40;12.73;;;;;;;0.37;100.00;99646.91;5225356;28;20028;-78
2021/01/24 02:39:53;;;;;;;30.58;12.00;;;;;;;0.29;100.00;99654.63;5227179;28;20060;-78
2021/01/24 02:42:24;;;;;;;27.58;12.07;;;;;;;0.28;100.00;99652.97;5224767;28;20020;-78
2021/01/24 02:44:55;;;;;;;33.70;13.32;;;;;;;0.19;100.00;99660.69;5226925;28;20036;-78
2021/01/24 02:47:28;;;;;;;28.58;11.23;;;;;;;0.20;100.00;99664.16;5230126;28;20548;-78
2021/01/24 02:50:00;;;;;;;26.15;10.60;;;;;;;0.25;100.00;99665.47;5229045;28;20174;-78
2021/01/24 02:52:31;;;;;;;28.85;11.27;;;;;;;0.22;100.00;99660.44;5230003;28;20036;-78
2021/01/24 02:55:03;;;;;;;33.88;12.40;;;;;;;0.34;100.00;99663.84;5230626;28;20028;-77
2021/01/24 02:57:35;;;;;;;25.23;9.73;;;;;;;0.42;100.00;99665.84;5230804;28;20028;-78
2021/01/24 03:00:08;;;;;;;28.30;10.30;;;;;;;0.37;100.00;99674.13;5230576;28;20088;-77
2021/01/24 03:02:39;;;;;;;25.92;10.77;;;;;;;0.41;100.00;99678.19;5229028;28;20071;-78
2021/01/24 03:05:15;;;;;;;23.23;9.48;;;;;;;0.46;100.00;99673.38;5227079;28;20025;-77
2021/01/24 03:07:54;;;;;;;24.73;10.13;;;;;;;0.49;100.00;99686.28;5229036;28;20032;-78
2021/01/24 03:10:25;;;;;;;17.80;7.97;;;;;;;0.64;100.00;99686.78;5228773;28;20029;-77
2021/01/24 03:13:08;;;;;;;18.38;8.15;;;;;;;0.73;100.00;99693.09;5211036;28;20025;-76
2021/01/24 03:15:39;;;;;;;12.40;6.45;;;;;;;0.66;100.00;99694.59;5229624;28;20024;-77
2021/01/24 03:18:15;;;;;;;18.17;6.88;;;;;;;0.58;100.00;99697.88;5229536;28;20369;-77
2021/01/24 03:20:46;;;;;;;;;;;;;;;0.46;100.00;99705.03;5230022;28;20066;-78
2021/01/24 03:23:18;;;;;;;12.52;5.70;;;;;;;0.35;100.00;99706.88;5228468;28;19908;-78
2021/01/24 03:25:50;;;;;;;12.07;5.68;;;;;;;0.31;100.00;99703.69;5229983;28;20380;-77
2021/01/24 03:28:22;;;;;;;10.30;4.88;;;;;;;0.22;100.00;99702.66;5227702;28;20052;-78
2021/01/24 03:30:52;;;;;;;10.63;4.75;;;;;;;0.21;100.00;99719.44;5229582;28;20554;-78
2021/01/24 03:33:23;;;;;;;9.63;4.10;;;;;;;0.13;100.00;99719.22;5226781;28;20025;-77
2021/01/24 03:35:53;;;;;;;10.88;4.40;;;;;;;0.09;100.00;99727.53;5230653;28;20021;-78
2021/01/24 03:38:24;;;;;;;9.57;4.57;;;;;;;0.07;100.00;99730.28;5224224;28;20018;-77
2021/01/24 03:40:55;;;;;;;11.38;5.07;;;;;;;0.04;100.00;99730.53;5225971;28;20033;-76
2021/01/24 03:43:25;;;;;;;9.95;5.03;;;;;;;0.03;100.00;99735.94;5232174;28;20028;-77
2021/01/24 03:45:56;;;;;;;13.10;4.82;;;;;;;-0.02;100.00;99729.25;5232347;28;20028;-78
2021/01/24 03:48:26;;;;;;;8.35;4.60;;;;;;;0.02;100.00;99736.91;5232072;28;20021;-78
2021/01/24 03:50:56;;;;;;;10.80;5.07;;;;;;;-0.01;100.00;99740.63;5229841;28;20055;-78
2021/01/24 03:53:27;;;;;;;13.10;5.35;;;;;;;-0.10;100.00;99739.59;5228528;28;20029;-77
2021/01/24 03:55:57;;;;;;;14.02;5.65;;;;;;;-0.05;100.00;99742.69;5228204;28;20037;-78
2021/01/24 03:58:28;;;;;;;13.27;6.35;;;;;;;-0.06;100.00;99746.25;5227922;28;20136;-78
2021/01/24 04:00:58;;;;;;;17.83;7.20;;;;;;;-0.08;100.00;99742.09;5228697;28;20029;-78
2021/01/24 04:03:29;;;;;;;16.20;7.07;;;;;;;-0.08;100.00;99747.38;5228644;28;20521;-77
2021/01/24 04:05:59;;;;;;;25.33;9.05;;;;;;;-0.10;100.00;99750.13;5228281;28;20088;-78
2021/01/24 04:08:30;;;;;;;25.60;9.75;;;;;;;-0.08;100.00;99750.84;5227980;28;20391;-78
2021/01/24 04:11:01;;;;;;;24.70;10.57;;;;;;;-0.09;100.00;99757.09;5228506;28;20510;-78
2021/01/24 04:13:31;;;;;;;26.83;10.70;;;;;;;-0.03;100.00;99753.09;5229946;28;20025;-77
2021/01/24 04:16:02;;;;;;;36.58;13.25;;;;;;;-0.03;100.00;99758.38;5231186;28;20097;-78
2021/01/24 04:18:33;;;;;;;39.65;14.07;;;;;;;-0.02;100.00;99749.50;5232664;28;20036;-77
2021/01/24 04:21:04;;;;;;;42.42;16.90;;;;;;;-0.03;100.00;99751.31;5232985;28;20025;-78
2021/01/24 04:23:35;;;;;;;41.03;15.55;;;;;;;-0.03;100.00;99753.94;5233278;28;20032;-77
2021/01/24 04:26:05;;;;;;;51.58;17.75;;;;;;;-0.03;100.00;99769.75;5234929;28;20494;-78
2021/01/24 04:28:36;;;;;;;52.38;18.10;;;;;;;-0.04;100.00;99759.34;5234343;28;20033;-78
2021/01/24 04:31:07;;;;;;;46.50;16.95;;;;;;;0.05;100.00;99776.19;5217869;28;20021;-77
2021/01/24 04:33:37;;;;;;;49.78;16.58;;;;;;;0.02;100.00;99773.81;5235045;28;20111;-78
2021/01/24 04:36:08;;;;;;;56.65;16.77;;;;;;;0.01;100.00;99775.63;5216818;28;20454;-78
2021/01/24 04:38:39;;;;;;;50.40;18.52;;;;;;;0.01;100.00;99780.91;5228300;28;20294;-78
2021/01/24 04:41:10;;;;;;;54.15;18.02;;;;;;;-0.07;100.00;99791.22;5229610;28;20017;-77
2021/01/24 04:43:41;;;;;;;65.10;22.75;;;;;;;-0.02;100.00;99787.25;5234478;28;20021;-78
2021/01/24 04:46:13;;;;;;;55.85;21.75;;;;;;;-0.05;100.00;99786.66;5233773;28;20067;-77
2021/01/24 04:48:44;;;;;;;59.70;22.35;;;;;;;0.04;100.00;99793.81;5231932;28;20472;-77
2021/01/24 04:51:15;;;;;;;59.08;21.42;;;;;;;-0.02;100.00;99789.88;5232059;28;20040;-78
2021/01/24 04:53:46;;;;;;;61.63;22.77;;;;;;;-0.04;100.00;99796.25;5230133;28;20521;-77
2021/01/24 04:56:17;;;;;;;110.50;50.67;;;;;;;-0.01;100.00;99801.28;5232083;28;20028;-78
2021/01/24 04:58:47;;;;;;;62.67;24.80;;;;;;;-0.06;100.00;99801.63;5212001;28;20029;-78
2021/01/24 05:01:20;;;;;;;63.42;22.65;;;;;;;-0.05;100.00;99807.75;5232769;28;20083;-78
2021/01/24 05:03:51;;;;;;;64.57;21.80;;;;;;;-0.02;100.00;99807.50;5232002;28;20146;-78
2021/01/24 05:06:21;;;;;;;52.15;19.80;;;;;;;-0.03;100.00;99808.47;5231467;28;20045;-78
2021/01/24 05:08:52;;;;;;;55.90;20.42;;;;;;;-0.05;100.00;99815.66;5232161;28;20025;-77
2021/01/24 05:11:22;;;;;;;56.05;19.80;;;;;;;-0.03;100.00;99813.75;5210095;28;20021;-78
2021/01/24 05:13:53;;;;;;;60.50;20.90;;;;;;;-0.02;100.00;99818.88;5230608;28;20029;-77
2021/01/24 05:16:23;;;;;;;57.22;19.70;;;;;;;-0.02;100.00;99821.53;5231026;28;20025;-78
2021/01/24 05:18:57;;;;;;;55.95;19.73;;;;;;;0.01;100.00;99825.72;5230679;28;20033;-77
2021/01/24 05:21:30;;;;;;;47.13;18.40;;;;;;;-0.08;100.00;99811.47;5229689;28;20056;-78
2021/01/24 05:24:01;;;;;;;52.30;17.92;;;;;;;-0.11;100.00;99813.53;5223850;28;20029;-78
2021/01/24 05:26:31;;;;;;;54.13;19.00;;;;;;;-0.15;100.00;99817.34;5228570;28;20076;-77
2021/01/24 05:29:02;;;;;;;48.22;17.77;;;;;;;-0.10;100.00;99821.31;5229637;28;20130;-78
2021/01/24 05:31:32;;;;;;;46.67;18.17;;;;;;;-0.15;100.00;99826.13;5230514;28;20029;-77
2021/01/24 05:34:03;;;;;;;58.40;24.42;;;;;;;-0.19;100.00;99822.06;5229818;28;20029;-77
2021/01/24 05:36:45;;;;;;;39.13;14.25;;;;;;;-0.17;100.00;99821.94;5229169;28;20468;-77
2021/01/24 05:39:16;;;;;;;50.55;15.55;;;;;;;-0.21;100.00;99817.84;5218190;28;20060;-77
2021/01/24 05:41:49;;;;;;;42.65;14.52;;;;;;;-0.27;100.00;99820.03;5229806;28;20081;-78
2021/01/24 05:44:21;;;;;;;40.00;14.23;;;;;;;-0.35;100.00;99825.06;5230008;28;20032;-78
2021/01/24 05:47:00;;;;;;;50.38;15.13;;;;;;;-0.39;100.00;99834.19;5230794;28;20391;-78
2021/01/24 05:49:32;;;;;;;42.13;14.30;;;;;;;-0.47;100.00;99838.38;5230644;28;20110;-78
2021/01/24 05:52:08;;;;;;;49.28;15.95;;;;;;;-0.38;100.00;99841.13;5189778;28;20033;-77
2021/01/24 05:54:42;;;;;;;52.90;17.70;;;;;;;-0.29;100.00;99843.03;5225018;28;20047;-77
2021/01/24 05:57:14;;;;;;;60.28;21.35;;;;;;;-0.33;100.00;99846.88;5230243;28;20040;-77
2021/01/24 05:59:54;;;;;;;52.75;17.08;;;;;;;-0.30;100.00;99848.44;5229691;28;20396;-77
2021/01/24 06:02:26;;;;;;;73.60;29.58;;;;;;;-0.31;100.00;99855.47;5229895;28;20028;-77
2021/01/24 06:04:57;;;;;;;66.53;27.25;;;;;;;-0.20;100.00;99862.56;5231981;28;20052;-78
2021/01/24 06:07:27;;;;;;;53.45;18.55;;;;;;;-0.09;100.00;99873.09;5226522;28;20056;-77
2021/01/24 06:09:58;;;;;;;56.90;22.73;;;;;;;-0.04;100.00;99870.09;5226606;28;20036;-77
2021/01/24 06:12:30;;;;;;;62.78;23.48;;;;;;;0.01;100.00;99869.72;5226937;28;20100;-77
2021/01/24 06:15:03;;;;;;;66.30;19.92;;;;;;;0.01;100.00;99875.84;5226221;28;20032;-78
2021/01/24 06:17:37;;;;;;;44.15;15.68;;;;;;;-0.01;100.00;99875.94;5208551;28;20480;-78
2021/01/24 06:20:09;;;;;;;39.30;13.82;;;;;;;-0.02;100.00;99876.91;5225887;28;20025;-78
2021/01/24 06:22:49;;;;;;;42.63;14.68;;;;;;;-0.01;100.00;99869.81;5225823;28;20025;-77
2021/01/24 06:25:32;;;;;;;47.60;14.98;;;;;;;-0.02;100.00;99868.16;5224178;28;20036;-79
2021/01/24 06:28:11;;;;;;;40.15;13.57;;;;;;;0.01;100.00;99881.09;5226334;28;20032;-78
2021/01/24 06:30:44;;;;;;;35.90;13.23;;;;;;;0.01;100.00;99883.75;5223851;28;20252;-78
2021/01/24 06:33:17;;;;;;;42.85;15.07;;;;;;;-0.01;100.00;99883.84;5225637;28;20440;-78
2021/01/24 06:35:57;;;;;;;39.45;13.50;;;;;;;-0.02;100.00;99881.34;5225327;28;20040;-77
2021/01/24 06:38:42;;;;;;;40.15;12.68;;;;;;;-0.05;100.00;99887.72;5225537;28;20029;-78
2021/01/24 06:41:14;;;;;;;33.38;12.10;;;;;;;-0.06;100.00;99890.44;5218977;28;20032;-77
2021/01/24 06:43:47;;;;;;;36.20;13.60;;;;;;;0.01;100.00;99894.28;5223892;28;20017;-78
2021/01/24 06:46:19;;;;;;;42.10;13.13;;;;;;;-0.01;100.00;99901.47;5223795;28;20506;-77
2021/01/24 06:48:51;;;;;;;48.53;12.98;;;;;;;0.01;100.00;99906.66;5225577;28;20087;-78
2021/01/24 06:51:39;;;;;;;44.90;13.52;;;;;;;0.01;100.00;99904.00;5225611;28;20615;-78
2021/01/24 06:54:14;;;;;;;35.38;12.10;;;;;;;-0.02;100.00;99905.06;5198382;28;20366;-79
2021/01/24 06:56:46;;;;;;;36.53;12.77;;;;;;;-0.09;100.00;99903.91;5215249;28;20391;-78
2021/01/24 06:59:29;;;;;;;36.47;13.05;;;;;;;-0.11;100.00;99911.06;5223020;28;20070;-78
2021/01/24 07:02:22;;;;;;;31.83;11.40;;;;;;;-0.13;100.00;99918.28;5222582;28;20487;-78
2021/01/24 07:05:12;;;;;;;28.50;11.60;;;;;;;-0.12;100.00;99922.59;5218742;28;20021;-78
2021/01/24 07:07:50;;;;;;;32.42;11.63;;;;;;;-0.11;100.00;99922.44;5225942;28;20076;-79
2021/01/24 07:10:36;;;;;;;38.42;12.27;;;;;;;-0.08;100.00;99924.03;5222015;28;20043;-78
2021/01/24 07:13:31;;;;;;;36.53;14.05;;;;;;;-0.01;100.00;99938.38;5221607;28;20399;-78
2021/01/24 07:16:05;;;;;;;33.63;11.60;;;;;;;0.03;100.00;99931.91;5222274;28;20510;-81
2021/01/24 07:18:37;;;;;;;32.72;11.70;;;;;;;0.04;100.00;99940.66;5206734;28;20254;-79
2021/01/24 07:21:09;;;;;;;32.00;11.95;;;;;;;0.04;100.00;99944.13;5223061;28;20025;-79
2021/01/24 07:23:40;;;;;;;35.08;10.98;;;;;;;0.04;100.00;99949.41;5222095;28;20025;-79
2021/01/24 07:26:11;;;;;;;37.10;12.07;;;;;;;0.01;100.00;99956.75;5223077;28;20492;-79
2021/01/24 07:28:41;;;;;;;32.58;11.40;;;;;;;0.14;100.00;99963.56;5223466;28;20125;-79
2021/01/24 07:31:12;;;;;;;30.92;11.25;;;;;;;0.09;100.00;99965.72;5222391;28;20052;-79
2021/01/24 07:33:42;;;;;;;28.67;10.57;;;;;;;0.08;100.00;99969.31;5222735;28;20040;-79
2021/01/24 07:36:16;;;;;;;27.10;10.95;;;;;;;0.04;100.00;99967.03;5224982;28;20048;-80
2021/01/24 07:38:46;;;;;;;38.35;11.90;;;;;;;0.04;100.00;99974.94;5223314;28;20024;-79
2021/01/24 07:41:19;;;;;;;31.88;12.30;;;;;;;0.08;100.00;99974.59;5216711;28;20070;-79
2021/01/24 07:43:49;;;;;;;27.85;10.65;;;;;;;0.11;100.00;99981.44;5224304;28;20455;-79
2021/01/24 07:46:22;;;;;;;24.73;10.38;;;;;;;0.10;100.00;99983.25;5223274;28;20098;-79
2021/01/24 07:48:52;;;;;;;30.77;10.90;;;;;;;0.10;100.00;99987.66;5225256;28;20029;-79
2021/01/24 07:51:23;;;;;;;27.52;11.70;;;;;;;0.07;100.00;99983.47;5225593;28;20154;-79
2021/01/24 07:53:54;;;;;;;64.38;28.10;;;;;;;0.09;100.00;99992.09;5226431;28;20114;-79
2021/01/24 07:56:25;;;;;;;46.00;17.23;;;;;;;0.09;100.00;99993.88;5226843;28;20036;-78
2021/01/24 07:58:57;;;;;;;34.47;13.52;;;;;;;0.13;100.00;99998.81;5226709;28;20029;-79
2021/01/24 08:01:27;;;;;;;33.53;12.20;;;;;;;0.14;100.00;99994.38;5226029;28;20093;-79
2021/01/24 08:04:00;;;;;;;31.38;11.65;;;;;;;0.06;100.00;100000.25;5227066;28;20103;-80
2021/01/24 08:06:34;;;;;;;31.90;12.45;;;;;;;0.07;100.00;100007.19;5227304;28;20232;-79
2021/01/24 08:09:07;;;;;;;34.60;13.63;;;;;;;0.10;100.00;100003.47;5226625;28;20086;-79
2021/01/24 08:11:37;;;;;;;25.92;10.40;;;;;;;0.04;100.00;100009.22;5225404;28;20028;-79
2021/01/24 08:14:08;;;;;;;28.42;10.65;;;;;;;0.02;100.00;100012.00;5226725;28;20021;-80
2021/01/24 08:16:45;;;;;;;26.02;10.38;;;;;;;0.03;100.00;100010.19;5217452;28;20035;-79
2021/01/24 08:19:20;;;;;;;31.08;11.48;;;;;;;0.03;100.00;100024.22;5225987;28;20021;-78
2021/01/24 08:21:51;;;;;;;36.47;11.95;;;;;;;0.02;100.00;100029.63;5225518;28;20021;-79
2021/01/24 08:24:23;;;;;;;29.65;11.13;;;;;;;0.01;100.00;100023.50;5226303;28;20029;-79
2021/01/24 08:26:54;;;;;;;25.33;11.70;;;;;;;0.03;100.00;100028.66;5226139;28;20383;-78
2021/01/24 08:29:25;;;;;;;37.40;12.63;;;;;;;-0.05;100.00;100038.00;5226160;28;20025;-78
2021/01/24 08:31:58;;;;;;;25.35;11.60;;;;;;;-0.10;100.00;100028.75;5225640;28;20436;-79
2021/01/24 08:34:29;;;;;;;32.60;12.70;;;;;;;-0.09;100.00;100041.00;5225196;28;20040;-79
2021/01/24 08:37:03;;;;;;;26.00;11.57;;;;;;;-0.10;100.00;100044.56;5227668;28;20021;-79
2021/01/24 08:39:34;;;;;;;27.17;11.70;;;;;;;-0.11;100.00;100043.72;5223636;28;20060;-79
2021/01/24 08:42:05;;;;;;;36.10;14.35;;;;;;;-0.15;100.00;100044.94;5221254;28;20033;-79
2021/01/24 08:44:35;;;;;;;34.33;11.85;;;;;;;-0.13;100.00;100044.81;5226439;28;20033;-79
2021/01/24 08:47:06;;;;;;;33.65;13.20;;;;;;;-0.10;100.00;100047.19;5225673;28;20028;-80
2021/01/24 08:49:39;;;;;;;34.20;13.23;;;;;;;-0.06;100.00;100038.09;5225465;28;20048;-79
2021/01/24 08:52:20;;;;;;;38.63;14.90;;;;;;;-0.04;100.00;100038.84;5226423;28;20067;-79
2021/01/24 08:55:00;;;;;;;38.67;15.10;;;;;;;0.06;100.00;100050.38;5219879;28;20107;-79
2021/01/24 08:57:33;;;;;;;40.08;15.02;;;;;;;0.08;100.00;100043.16;5226187;28;20067;-79
2021/01/24 09:00:07;;;;;;;46.33;17.05;;;;;;;0.15;100.00;100047.03;5226965;28;20088;-79
2021/01/24 09:02:39;;;;;;;39.92;15.48;;;;;;;0.16;100.00;100040.78;5225857;28;20032;-80
2021/01/24 09:05:15;;;;;;;43.88;20.42;;;;;;;0.16;100.00;100043.41;5226865;28;20108;-80
2021/01/24 09:07:47;;;;;;;37.78;17.45;;;;;;;0.29;100.00;100047.72;5227502;28;20033;-80
2021/01/24 09:10:22;;;;;;;32.67;14.48;;;;;;;0.36;100.00;100046.31;5229258;28;20052;-80
2021/01/24 09:12:55;;;;;;;32.15;13.63;;;;;;;0.39;100.00;100041.59;5225328;28;20108;-80
2021/01/24 09:15:27;;;;;;;35.20;14.65;;;;;;;0.44;100.00;100050.00;5227840;28;20399;-79
2021/01/24 09:17:59;;;;;;;34.03;13.57;;;;;;;0.55;100.00;100050.94;5231805;28;20029;-81
2021/01/24 09:20:29;;;;;;;33.17;13.73;;;;;;;0.57;100.00;100057.78;5230678;28;20080;-80
2021/01/24 09:23:00;;;;;;;32.20;13.90;;;;;;;0.67;100.00;100064.03;5227588;28;20499;-80
2021/01/24 09:25:30;;;;;;;32.75;13.57;;;;;;;0.73;100.00;100070.63;5227786;28;20105;-79
2021/01/24 09:28:01;;;;;;;35.35;13.85;;;;;;;0.70;100.00;100063.78;5225923;28;20127;-80
2021/01/24 09:30:31;;;;;;;33.88;13.88;;;;;;;0.74;100.00;100067.84;5227947;28;20017;-80
2021/01/24 09:33:02;;;;;;;27.50;12.02;;;;;;;0.85;100.00;100071.41;5226079;28;20024;-78
2021/01/24 09:35:32;;;;;;;28.90;13.07;;;;;;;0.83;100.00;100073.34;5225332;28;20024;-79
2021/01/24 09:38:03;;;;;;;34.05;13.73;;;;;;;0.87;100.00;100077.44;5229221;28;20083;-80
2021/01/24 09:40:33;;;;;;;34.40;13.15;;;;;;;0.89;100.00;100073.69;5210041;28;20051;-80
2021/01/24 09:43:04;;;;;;;33.20;13.52;;;;;;;1.03;100.00;100069.94;5212693;28;20533;-78
2021/01/24 09:45:34;;;;;;;32.08;12.68;;;;;;;1.06;100.00;100069.72;5224431;28;21640;-80
2021/01/24 09:48:07;;;;;;;30.95;12.27;;;;;;;1.05;100.00;100070.66;5230792;28;20436;-80
2021/01/24 09:50:37;;;;;;;26.48;11.35;;;;;;;1.13;100.00;100072.69;5230076;28;20483;-80
2021/01/24 09:53:07;;;;;;;32.05;13.15;;;;;;;1.16;100.00;100077.72;5227863;28;20017;-80
2021/01/24 09:55:38;;;;;;;28.90;11.88;;;;;;;1.18;100.00;100074.00;5226278;28;20096;-78
2021/01/24 09:58:09;;;;;;;31.67;11.13;;;;;;;1.26;100.00;100079.50;5223784;28;20036;-78
2021/01/24 10:00:39;;;;;;;25.60;11.70;;;;;;;1.22;100.00;100071.94;5224104;28;20039;-79
2021/01/24 10:03:10;;;;;;;23.90;11.65;;;;;;;1.37;100.00;100075.13;5221869;28;20032;-79
2021/01/24 10:05:41;;;;;;;29.70;12.75;;;;;;;1.36;100.00;100070.81;5224200;28;20033;-78
2021/01/24 10:08:11;;;;;;;30.60;11.57;;;;;;;1.41;100.00;100068.63;5223363;28;20266;-78
2021/01/24 10:10:42;;;;;;;35.60;13.00;;;;;;;1.48;100.00;100075.09;5224360;28;20498;-79
2021/01/24 10:13:13;;;;;;;37.05;14.07;;;;;;;1.57;100.00;100081.44;5222660;28;20025;-79
2021/01/24 10:15:49;;;;;;;27.42;12.38;;;;;;;1.57;100.00;100084.91;5223309;28;20495;-79
2021/01/24 10:18:21;;;;;;;31.35;11.88;;;;;;;1.68;100.00;100086.66;5221602;28;20043;-79
2021/01/24 10:20:51;;;;;;;33.40;13.35;;;;;;;1.77;100.00;100094.66;5222895;28;20094;-78
2021/01/24 10:23:23;;;;;;;28.75;12.38;;;;;;;1.80;100.00;100097.03;5221102;28;20028;-80
2021/01/24 10:25:56;;;;;;;27.02;12.32;;;;;;;1.88;100.00;100099.03;5223667;28;20263;-78
2021/01/24 10:28:27;;;;;;;32.75;12.85;;;;;;;1.96;100.00;100095.78;5223487;28;20380;-78
2021/01/24 10:30:57;;;;;;;30.60;12.50;;;;;;;1.98;100.00;100092.00;5223334;28;20025;-79
2021/01/24 10:33:28;;;;;;;30.92;13.23;;;;;;;2.06;100.00;100094.03;5222273;28;20031;-78
2021/01/24 10:35:58;;;;;;;27.17;11.23;;;;;;;2.19;100.00;100092.00;5222878;28;20491;-80
2021/01/24 10:38:29;;;;;;;25.77;11.07;;;;;;;2.23;100.00;100087.28;5223367;28;20523;-79
2021/01/24 10:40:59;;;;;;;25.48;11.10;;;;;;;2.39;100.00;100098.22;5223556;28;20035;-78
2021/01/24 10:43:30;;;;;;;26.75;12.10;;;;;;;2.46;100.00;100088.81;5195864;28;20116;-79
2021/01/24 10:46:01;;;;;;;25.48;12.65;;;;;;;2.45;100.00;100095.03;5223803;28;20361;-78
2021/01/24 10:48:32;;;;;;;27.92;11.15;;;;;;;2.50;100.00;100095.47;5224249;28;20021;-79
2021/01/24 10:51:02;;;;;;;27.33;12.73;;;;;;;2.51;100.00;100091.88;5224590;28;20096;-77
2021/01/24 10:53:33;;;;;;;29.65;13.50;;;;;;;2.49;100.00;100092.97;5222858;28;20035;-77
2021/01/24 10:56:04;;;;;;;28.10;10.25;;;;;;;2.42;100.00;100091.84;5222623;28;20072;-78
2021/01/24 10:58:35;;;;;;;26.92;11.77;;;;;;;2.45;100.00;100086.25;5223113;28;20509;-78
2021/01/24 11:01:05;;;;;;;23.88;10.38;;;;;;;2.55;100.00;100095.09;5223125;28;20025;-80
2021/01/24 11:03:36;;;;;;;22.40;9.73;;;;;;;2.55;100.00;100081.84;5221551;28;20048;-79
2021/01/24 11:06:06;;;;;;;31.58;10.98;;;;;;;2.52;100.00;100084.78;5223746;28;20033;-79
2021/01/24 11:08:37;;;;;;;20.95;9.82;;;;;;;2.51;100.00;100093.66;5225645;28;20025;-78
2021/01/24 11:11:07;;;;;;;26.63;11.63;;;;;;;2.56;100.00;100081.72;5222288;28;20353;-79
2021/01/24 11:13:37;;;;;;;27.17;10.63;;;;;;;2.60;100.00;100075.16;5222731;28;20075;-78
2021/01/24 11:16:08;;;;;;;25.77;11.18;;;;;;;2.52;100.00;100080.31;5223456;28;20029;-79
2021/01/24 11:18:38;;;;;;;25.33;11.35;;;;;;;2.54;100.00;100083.66;5223069;28;20033;-78
2021/01/24 11:21:09;;;;;;;22.20;10.77;;;;;;;2.54;100.00;100088.13;5223511;28;20039;-80
2021/01/24 11:23:39;;;;;;;25.50;11.70;;;;;;;2.55;100.00;100089.78;5222165;28;20344;-79
2021/01/24 11:26:10;;;;;;;28.35;11.85;;;;;;;2.64;100.00;100088.16;5224596;28;20456;-79
2021/01/24 11:28:40;;;;;;;23.40;10.30;;;;;;;2.63;100.00;100076.72;5222346;28;20518;-79
2021/01/24 11:31:10;;;;;;;23.60;11.68;;;;;;;2.65;100.00;100084.53;5224984;28;20225;-79
2021/01/24 11:33:41;;;;;;;27.75;10.48;;;;;;;2.69;100.00;100084.13;5218382;28;20044;-79
2021/01/24 11:36:12;;;;;;;22.38;12.00;;;;;;;2.76;100.00;100090.59;5223350;28;20024;-79
2021/01/24 11:38:43;;;;;;;23.95;11.55;;;;;;;2.71;100.00;100086.63;5224734;28;20032;-79